Time;durP1;ratioP1;P1;durP2;ratioP2;P2;SDS_P1;SDS_P2;PMS_P1;PMS_P2;Temp;Humidity;BMP_temperature;BMP_pressure;BME280_temperature;BME280_humidity;BME280_pressure;Samples;Min_cycle;Max_cycle;Signal;HPM_P1;HPM_P2
2021/06/25 00:02:03;;;;;;;;;19.75;17.75;;;;;15.22;66.78;101930.53;4934101;28;45479;-78
2021/06/25 00:04:28;;;;;;;;;23.25;20.00;;;;;15.17;66.64;101924.56;4935750;28;45465;-77
2021/06/25 00:06:54;;;;;;;;;31.00;23.25;;;;;15.11;67.17;101926.56;4938878;28;46248;-78
2021/06/25 00:09:19;;;;;;;;;24.00;20.50;;;;;15.09;67.18;101930.22;4937380;28;60488;-77
2021/06/25 00:11:45;;;;;;;;;20.75;20.50;;;;;15.07;66.93;101926.75;4937868;28;45754;-77
2021/06/25 00:14:10;;;;;;;;;24.75;23.00;;;;;15.03;66.76;101920.72;4938213;28;45565;-77
2021/06/25 00:16:35;;;;;;;;;25.25;22.25;;;;;15.00;67.28;101923.53;4938562;28;46946;-77
2021/06/25 00:19:01;;;;;;;;;23.25;20.50;;;;;14.97;67.27;101923.63;4939188;28;45448;-78
2021/06/25 00:21:26;;;;;;;;;23.50;20.25;;;;;14.95;67.58;101911.41;4938054;28;45360;-77
2021/06/25 00:23:51;;;;;;;;;22.00;19.75;;;;;14.91;67.44;101913.31;4938028;28;45250;-76
2021/06/25 00:26:17;;;;;;;;;22.00;19.00;;;;;14.89;67.98;101917.81;4937609;28;46065;-77
2021/06/25 00:28:43;;;;;;;;;22.00;18.75;;;;;14.85;68.08;101913.56;4938891;28;45527;-77
2021/06/25 00:31:08;;;;;;;;;22.25;19.00;;;;;14.81;68.16;101926.06;4937968;28;45759;-77
2021/06/25 00:33:34;;;;;;;;;25.50;22.50;;;;;14.78;68.10;101915.63;4937566;28;45302;-77
2021/06/25 00:35:59;;;;;;;;;24.75;20.25;;;;;14.75;68.57;101907.81;4937569;28;46090;-77
2021/06/25 00:38:25;;;;;;;;;20.50;19.75;;;;;14.72;68.44;101904.41;4937805;28;45573;-78
2021/06/25 00:40:50;;;;;;;;;22.50;20.25;;;;;14.68;68.57;101901.06;4936499;28;45519;-77
2021/06/25 00:43:15;;;;;;;;;23.00;20.25;;;;;14.65;68.69;101901.16;4938787;28;45503;-77
2021/06/25 00:45:41;;;;;;;;;21.25;20.00;;;;;14.62;69.12;101903.97;4936913;28;50784;-78
2021/06/25 00:48:06;;;;;;;;;24.00;21.25;;;;;14.59;69.46;101907.56;4937717;28;46255;-77
2021/06/25 00:50:34;;;;;;;;;21.00;19.25;;;;;14.56;69.27;101899.78;4937471;28;45470;-77
2021/06/25 00:53:00;;;;;;;;;23.75;22.00;;;;;14.53;69.64;101893.75;4938734;28;46466;-77
2021/06/25 00:55:28;;;;;;;;;30.75;24.00;;;;;14.50;69.39;101886.78;4939209;28;45764;-77
2021/06/25 00:57:54;;;;;;;;;21.50;20.50;;;;;14.48;69.50;101891.28;4936223;28;45912;-77
2021/06/25 01:00:21;;;;;;;;;28.00;22.25;;;;;14.46;69.75;101882.53;4936885;28;45488;-77
2021/06/25 01:02:47;;;;;;;;;26.25;23.00;;;;;14.45;69.91;101883.44;4936490;28;45539;-77
2021/06/25 01:05:15;;;;;;;;;25.50;22.50;;;;;14.43;70.21;101876.50;4935348;28;47144;-77
2021/06/25 01:07:41;;;;;;;;;22.00;20.00;;;;;14.40;70.09;101872.19;4936272;28;46024;-77
2021/06/25 01:10:09;;;;;;;;;25.25;23.75;;;;;14.40;70.25;101884.53;4938432;28;45537;-77
2021/06/25 01:12:35;;;;;;;;;24.75;22.00;;;;;14.37;70.50;101880.25;4936687;28;45705;-77
2021/06/25 01:15:00;;;;;;;;;25.25;22.00;;;;;14.33;70.45;101881.28;4936187;28;47070;-77
2021/06/25 01:17:34;;;;;;;;;25.75;22.00;;;;;14.28;70.57;101884.13;4936495;28;45450;-77
2021/06/25 01:20:03;;;;;;;;;23.25;20.00;;;;;14.25;70.71;101878.97;4936408;28;45522;-77
2021/06/25 01:22:34;;;;;;;;;26.50;24.75;;;;;14.23;70.63;101874.66;4935244;28;45342;-76
2021/06/25 01:25:12;;;;;;;;;19.75;18.00;;;;;14.20;70.89;101873.00;4936514;28;47133;-76
2021/06/25 01:27:38;;;;;;;;;24.25;22.25;;;;;14.19;70.85;101870.41;4934996;28;45649;-77
2021/06/25 01:30:08;;;;;;;;;24.00;21.25;;;;;14.17;71.04;101869.63;4935456;28;45531;-77
2021/06/25 01:32:34;;;;;;;;;26.75;21.00;;;;;14.12;70.93;101858.38;4936224;28;45907;-76
2021/06/25 01:35:01;;;;;;;;;29.75;24.00;;;;;14.15;70.94;101866.16;4936638;28;45453;-77
2021/06/25 01:37:28;;;;;;;;;26.75;22.50;;;;;14.13;71.22;101862.72;4938588;28;46188;-74
2021/06/25 01:39:53;;;;;;;;;26.25;21.50;;;;;14.11;71.51;101868.06;4935828;28;45424;-77
2021/06/25 01:42:18;;;;;;;;;26.75;22.75;;;;;14.06;71.38;101864.75;4936736;28;46400;-77
2021/06/25 01:44:46;;;;;;;;;24.50;20.25;;;;;14.07;71.24;101863.81;4937485;28;45967;-77
2021/06/25 01:47:12;;;;;;;;;25.25;23.25;;;;;14.05;71.64;101863.91;4936825;28;45393;-77
2021/06/25 01:49:38;;;;;;;;;26.50;23.00;;;;;14.03;71.55;101857.78;4937045;28;45444;-77
2021/06/25 01:52:04;;;;;;;;;25.00;22.25;;;;;14.02;71.56;101861.38;4936911;28;46809;-77
2021/06/25 01:54:29;;;;;;;;;27.00;24.25;;;;;14.00;71.89;101852.66;4935650;28;46209;-77
2021/06/25 01:56:55;;;;;;;;;23.00;20.25;;;;;13.98;71.54;101849.19;4936667;28;45483;-77
2021/06/25 01:59:22;;;;;;;;;29.00;24.25;;;;;13.98;72.28;101853.59;4936331;28;45695;-77
2021/06/25 02:01:47;;;;;;;;;24.00;21.25;;;;;13.98;72.23;101864.19;4936121;28;45687;-77
2021/06/25 02:04:13;;;;;;;;;26.50;22.50;;;;;13.96;72.01;101858.09;4937401;28;46172;-77
2021/06/25 02:06:38;;;;;;;;;30.25;22.00;;;;;13.92;72.48;101852.06;4935514;28;45574;-77
2021/06/25 02:09:04;;;;;;;;;23.25;21.00;;;;;13.91;72.71;101858.28;4936598;28;45693;-77
2021/06/25 02:11:29;;;;;;;;;26.25;23.25;;;;;13.89;72.30;101851.34;4934934;28;45610;-77
2021/06/25 02:13:55;;;;;;;;;23.50;19.75;;;;;13.88;72.28;101852.25;4935303;28;46350;-77
2021/06/25 02:16:20;;;;;;;;;27.50;22.75;;;;;13.87;72.61;101845.25;4937628;28;45450;-77
2021/06/25 02:18:46;;;;;;;;;22.75;22.00;;;;;13.86;72.74;101844.38;4936046;28;45312;-77
2021/06/25 02:21:11;;;;;;;;;25.50;21.25;;;;;13.82;73.04;101838.34;4935947;28;45511;-77
2021/06/25 02:23:37;;;;;;;;;20.50;20.00;;;;;13.81;73.10;101830.50;4936396;28;45580;-77
2021/06/25 02:26:03;;;;;;;;;21.50;21.00;;;;;13.78;73.32;101831.50;4935865;28;45392;-77
2021/06/25 02:28:28;;;;;;;;;24.25;23.00;;;;;13.76;73.16;101832.44;4951898;28;45455;-77
2021/06/25 02:30:55;;;;;;;;;20.25;17.50;;;;;13.72;73.39;101831.69;4936672;28;45442;-77
2021/06/25 02:33:21;;;;;;;;;20.00;18.75;;;;;13.70;73.36;101827.41;4934721;28;47283;-77
2021/06/25 02:35:46;;;;;;;;;24.00;22.75;;;;;13.68;73.32;101823.97;4935804;28;45465;-77
2021/06/25 02:38:11;;;;;;;;;24.00;19.75;;;;;13.65;73.54;101824.09;4935660;28;45520;-77
2021/06/25 02:40:37;;;;;;;;;21.25;18.50;;;;;13.63;73.74;101820.66;4934815;28;45503;-77
2021/06/25 02:43:02;;;;;;;;;24.00;21.75;;;;;13.62;74.02;101824.19;4936275;28;45471;-77
2021/06/25 02:45:28;;;;;;;;;23.75;21.75;;;;;13.59;74.02;101817.25;4934774;28;45451;-77
2021/06/25 02:47:53;;;;;;;;;27.50;23.00;;;;;13.56;73.81;101820.88;4933934;28;45565;-77
2021/06/25 02:50:18;;;;;;;;;29.25;23.75;;;;;13.54;73.97;101822.72;4935450;28;46153;-78
2021/06/25 02:52:44;;;;;;;;;16.25;16.25;;;;;13.54;73.51;101817.44;4935729;28;46139;-78
2021/06/25 02:55:11;;;;;;;;;24.25;19.75;;;;;13.54;73.84;101814.78;4937302;28;45439;-77
2021/06/25 02:57:37;;;;;;;;;23.00;20.25;;;;;13.54;73.86;101820.06;4935489;28;45542;-77
2021/06/25 03:00:06;;;;;;;;;27.00;22.25;;;;;13.53;73.75;101818.34;4934154;28;45436;-76
2021/06/25 03:02:31;;;;;;;;;20.25;17.00;;;;;13.49;74.02;101818.53;4949819;28;48382;-77
2021/06/25 03:04:57;;;;;;;;;23.50;20.75;;;;;13.49;73.74;101818.53;4934061;28;45534;-77
2021/06/25 03:07:22;;;;;;;;;23.50;20.50;;;;;13.41;73.58;101805.59;4933338;28;45404;-77
2021/06/25 03:09:47;;;;;;;;;21.75;19.00;;;;;13.44;74.27;101813.41;4933887;28;45626;-76
2021/06/25 03:12:12;;;;;;;;;18.25;17.00;;;;;13.41;74.30;101810.88;4934477;28;47132;-77
2021/06/25 03:14:39;;;;;;;;;29.00;24.00;;;;;13.40;74.00;101813.59;4935573;28;45505;-77
2021/06/25 03:17:04;;;;;;;;;22.25;20.00;;;;;13.40;74.37;101810.94;4950366;28;45781;-77
2021/06/25 03:19:30;;;;;;;;;27.25;23.75;;;;;13.38;74.14;101810.16;4936875;28;45491;-77
2021/06/25 03:21:55;;;;;;;;;29.25;18.75;;;;;13.37;74.38;101811.06;4935219;28;46726;-77
2021/06/25 03:24:20;;;;;;;;;22.50;19.00;;;;;13.36;74.23;101811.97;4934679;28;46328;-77
2021/06/25 03:26:46;;;;;;;;;23.25;22.25;;;;;13.35;74.27;101807.63;4934500;28;45879;-77
2021/06/25 03:29:11;;;;;;;;;22.75;21.25;;;;;13.33;74.55;101807.69;4935867;28;45508;-77
2021/06/25 03:31:37;;;;;;;;;20.75;20.00;;;;;13.35;74.37;101812.88;4935576;28;46087;-76
2021/06/25 03:34:02;;;;;;;;;22.00;18.75;;;;;13.37;74.29;101816.34;4935404;28;45527;-77
2021/06/25 03:36:27;;;;;;;;;22.25;21.25;;;;;13.37;74.48;101816.34;4935870;28;45417;-77
2021/06/25 03:38:53;;;;;;;;;28.25;23.25;;;;;13.37;74.50;101809.28;4933359;28;45455;-77
2021/06/25 03:41:18;;;;;;;;;23.00;20.00;;;;;13.38;74.43;101811.00;4932512;28;45630;-77
2021/06/25 03:43:43;;;;;;;;;23.00;16.75;;;;;13.39;74.42;101811.88;4935502;28;45335;-77
2021/06/25 03:46:09;;;;;;;;;22.25;20.50;;;;;13.39;74.38;101818.00;4935765;28;45234;-76
2021/06/25 03:48:34;;;;;;;;;28.00;22.00;;;;;13.40;74.31;101808.31;4935210;28;45392;-77
2021/06/25 03:51:00;;;;;;;;;23.50;20.75;;;;;13.39;74.34;101818.00;4934410;28;45403;-77
2021/06/25 03:53:25;;;;;;;;;20.25;18.75;;;;;13.42;74.11;101809.97;4935377;28;45221;-77
2021/06/25 03:56:10;;;;;;;;;28.00;23.25;;;;;13.46;74.49;101813.34;4932048;28;45494;-75
2021/06/25 03:58:36;;;;;;;;;25.50;23.75;;;;;13.48;74.52;101815.03;4933894;28;45314;-77
2021/06/25 04:01:02;;;;;;;;;28.00;23.75;;;;;13.50;74.53;101812.31;4934537;28;45698;-78
2021/06/25 04:03:27;;;;;;;;;28.00;22.50;;;;;13.50;74.83;101802.63;4935201;28;45569;-77
2021/06/25 04:05:52;;;;;;;;;23.75;21.75;;;;;13.52;74.77;101800.78;4934834;28;45609;-78
2021/06/25 04:08:23;;;;;;;;;23.75;21.50;;;;;13.56;74.53;101805.00;4939590;28;48753;-77
2021/06/25 04:10:48;;;;;;;;;25.50;21.75;;;;;13.63;74.76;101799.53;4940368;28;46214;-78
2021/06/25 04:13:13;;;;;;;;;25.67;22.33;;;;;13.71;74.60;101792.13;4941930;28;54381;-77
2021/06/25 04:15:39;;;;;;;;;26.75;24.25;;;;;13.79;74.53;101795.34;4941008;28;45404;-77
2021/06/25 04:18:04;;;;;;;;;24.25;22.75;;;;;13.87;74.71;101798.53;4940949;28;45431;-77
2021/06/25 04:20:30;;;;;;;;;27.25;22.00;;;;;13.93;74.79;101795.66;4939549;28;46278;-77
2021/06/25 04:22:55;;;;;;;;;30.75;26.00;;;;;14.01;74.93;101795.34;4939372;28;45458;-77
2021/06/25 04:25:20;;;;;;;;;29.00;20.75;;;;;14.09;74.81;101796.78;4942301;28;45690;-77
2021/06/25 04:27:46;;;;;;;;;32.75;23.50;;;;;14.21;74.42;101800.69;4940419;28;45298;-76
2021/06/25 04:30:13;;;;;;;;;25.75;23.00;;;;;14.30;74.39;101797.69;4940619;28;46274;-77
2021/06/25 04:32:40;;;;;;;;;25.25;23.50;;;;;14.43;74.23;101807.72;4939329;28;45296;-77
2021/06/25 04:35:05;;;;;;;;;27.75;25.75;;;;;14.52;73.93;101807.38;4939449;28;46922;-77
2021/06/25 04:37:31;;;;;;;;;27.75;24.50;;;;;14.63;73.83;101794.56;4939546;28;45693;-77
2021/06/25 04:39:56;;;;;;;;;28.75;23.50;;;;;14.72;73.18;101798.56;4949829;28;47231;-76
2021/06/25 04:42:21;;;;;;;;;26.25;23.00;;;;;14.79;72.89;101803.56;4934121;28;45510;-77
2021/06/25 04:44:47;;;;;;;;;35.50;27.75;;;;;14.88;72.96;101802.31;4934302;28;45270;-77
2021/06/25 04:47:12;;;;;;;;;29.75;24.75;;;;;14.95;72.75;101805.53;4934438;28;45330;-78
2021/06/25 04:49:38;;;;;;;;;28.00;25.25;;;;;15.01;72.78;101802.59;4935645;28;46325;-77
2021/06/25 04:52:05;;;;;;;;;29.25;25.00;;;;;15.07;72.25;101800.53;4936159;28;45411;-77
2021/06/25 04:54:30;;;;;;;;;26.75;23.50;;;;;15.15;72.18;101797.56;4937121;28;45349;-77
2021/06/25 04:56:56;;;;;;;;;28.25;24.50;;;;;15.25;72.28;101795.34;4935575;28;45437;-77
2021/06/25 04:59:21;;;;;;;;;34.00;28.25;;;;;15.33;72.02;101793.19;4934605;28;46057;-77
2021/06/25 05:01:47;;;;;;;;;30.25;23.50;;;;;15.44;71.87;101787.41;4937438;28;45431;-77
2021/06/25 05:04:12;;;;;;;;;27.75;24.75;;;;;15.54;71.72;101794.00;4938559;28;45452;-77
2021/06/25 05:06:38;;;;;;;;;25.25;22.75;;;;;15.61;71.68;101795.44;4936807;28;45478;-77
2021/06/25 05:09:03;;;;;;;;;32.50;25.75;;;;;15.67;71.20;101797.84;4935944;28;45522;-78
2021/06/25 05:11:28;;;;;;;;;29.50;25.50;;;;;15.69;71.12;101792.44;4936058;28;45553;-78
2021/06/25 05:13:54;;;;;;;;;32.25;26.50;;;;;15.69;70.62;101793.31;4936916;28;45523;-78
2021/06/25 05:16:19;;;;;;;;;32.50;27.75;;;;;15.69;70.71;101795.09;4937513;28;45584;-78
2021/06/25 05:18:44;;;;;;;;;26.50;23.75;;;;;15.68;70.68;101804.00;4936042;28;46010;-78
2021/06/25 05:21:10;;;;;;;;;28.50;26.00;;;;;15.71;70.88;101804.69;4935567;28;45416;-78
2021/06/25 05:23:35;;;;;;;;;29.50;26.50;;;;;15.74;70.34;101801.91;4935804;28;45452;-78
2021/06/25 05:26:02;;;;;;;;;28.25;22.50;;;;;15.75;70.65;101803.59;4936031;28;45390;-78
2021/06/25 05:28:27;;;;;;;;;33.00;28.75;;;;;15.78;70.85;101802.63;4936539;28;46188;-77
2021/06/25 05:30:53;;;;;;;;;27.00;25.75;;;;;15.84;70.60;101808.47;4936367;28;46704;-78
2021/06/25 05:33:18;;;;;;;;;26.50;24.25;;;;;15.90;70.27;101808.19;4933089;28;45702;-78
2021/06/25 05:35:44;;;;;;;;;36.00;27.75;;;;;15.93;70.20;101809.84;4936358;28;45455;-77
2021/06/25 05:38:14;;;;;;;;;32.00;28.50;;;;;15.96;69.69;101803.53;4935662;28;46224;-78
2021/06/25 05:40:43;;;;;;;;;30.50;27.75;;;;;15.99;70.06;101800.72;4936555;28;45836;-78
2021/06/25 05:43:09;;;;;;;;;27.50;20.25;;;;;16.02;69.66;101801.41;4936706;28;45619;-76
2021/06/25 05:45:39;;;;;;;;;33.25;25.75;;;;;16.08;69.85;101801.16;4936245;28;45530;-77
2021/06/25 05:48:05;;;;;;;;;35.75;30.25;;;;;16.12;70.05;101802.69;4934699;28;46311;-76
2021/06/25 05:50:31;;;;;;;;;27.25;26.00;;;;;16.20;69.59;101799.69;4934712;28;45559;-76
2021/06/25 05:52:56;;;;;;;;;34.25;32.00;;;;;16.27;69.90;101809.03;4935678;28;45452;-77
2021/06/25 05:55:22;;;;;;;;;26.00;23.00;;;;;16.34;69.47;101804.28;4936482;28;47372;-78
2021/06/25 05:57:48;;;;;;;;;31.25;29.75;;;;;16.40;69.39;101806.66;4935634;28;45685;-77
2021/06/25 06:00:14;;;;;;;;;29.00;23.75;;;;;16.47;68.92;101802.72;4954207;28;45325;-78
2021/06/25 06:02:40;;;;;;;;;29.75;24.50;;;;;16.53;69.03;101810.38;4941195;28;45488;-77
2021/06/25 06:05:06;;;;;;;;;32.50;27.75;;;;;16.61;69.06;101818.81;4933839;28;45530;-77
2021/06/25 06:07:32;;;;;;;;;27.50;23.25;;;;;16.65;69.21;101812.44;4936217;28;46351;-77
2021/06/25 06:09:57;;;;;;;;;41.25;31.00;;;;;16.69;68.78;101807.81;4935461;28;45457;-76
2021/06/25 06:12:23;;;;;;;;;33.00;26.75;;;;;16.73;68.67;101808.53;4935035;28;45425;-77
2021/06/25 06:14:49;;;;;;;;;36.25;29.75;;;;;16.76;68.77;101801.28;4934855;28;45523;-80
2021/06/25 06:17:18;;;;;;;;;31.75;29.00;;;;;16.81;68.36;101807.22;4933464;28;46112;-81
2021/06/25 06:19:46;;;;;;;;;32.25;28.25;;;;;16.85;68.15;101803.44;4936428;28;45410;-76
2021/06/25 06:33:14;;;;;;;;;30.00;25.00;;;;;17.38;66.90;101797.09;4931434;28;45413;-78
2021/06/25 06:35:39;;;;;;;;;26.50;22.50;;;;;17.53;65.72;101795.38;4933593;28;45448;-80
2021/06/25 06:38:06;;;;;;;;;25.75;22.25;;;;;17.61;65.76;101781.66;4934814;28;46983;-79
2021/06/25 06:40:32;;;;;;;;;26.50;23.50;;;;;17.73;66.09;101787.16;4935180;28;46108;-78
2021/06/25 06:42:57;;;;;;;;;33.75;27.50;;;;;17.86;65.25;101782.03;4937260;28;45455;-78
2021/06/25 06:45:23;;;;;;;;;26.75;25.00;;;;;17.96;65.35;101779.72;4935698;28;45484;-78
2021/06/25 06:47:48;;;;;;;;;28.75;26.25;;;;;18.09;64.24;101783.38;4935377;28;46018;-78
2021/06/25 06:50:14;;;;;;;;;33.25;29.00;;;;;18.19;63.71;101781.88;4935615;28;45404;-79
2021/06/25 06:52:46;;;;;;;;;34.00;28.00;;;;;18.34;63.21;101788.13;4936415;28;45401;-78
2021/06/25 06:55:13;;;;;;;;;29.25;26.25;;;;;18.63;62.67;101785.50;4935330;28;45479;-79
2021/06/25 06:57:38;;;;;;;;;32.50;28.00;;;;;18.96;62.70;101783.53;4934843;28;46329;-78
2021/06/25 07:00:06;;;;;;;;;23.00;22.25;;;;;19.30;62.00;101782.25;4934151;28;45912;-76
2021/06/25 07:02:33;;;;;;;;;27.50;24.50;;;;;19.54;61.04;101777.19;4933529;28;46650;-77
2021/06/25 07:04:58;;;;;;;;;33.75;28.50;;;;;19.67;60.68;101784.44;4935109;28;45568;-77
2021/06/25 07:07:24;;;;;;;;;33.75;26.50;;;;;19.71;60.61;101776.13;4935293;28;54070;-76
2021/06/25 07:09:49;;;;;;;;;29.25;24.75;;;;;19.75;60.55;101779.47;4933666;28;54489;-77
2021/06/25 07:12:14;;;;;;;;;30.75;26.75;;;;;19.75;59.05;101782.13;4934523;28;45501;-76
2021/06/25 07:14:40;;;;;;;;;29.25;27.00;;;;;19.74;59.42;101783.94;4934698;28;45439;-77
2021/06/25 07:17:05;;;;;;;;;33.75;29.75;;;;;19.74;59.49;101791.09;4934270;28;45373;-76
2021/06/25 07:19:30;;;;;;;;;29.25;26.25;;;;;19.81;59.04;101779.91;4935582;28;46540;-75
2021/06/25 07:21:56;;;;;;;;;29.50;28.25;;;;;19.99;59.37;101783.22;4928938;28;46167;-76
2021/06/25 07:24:21;;;;;;;;;26.50;25.25;;;;;20.36;58.41;101783.41;4933919;28;45762;-76
2021/06/25 07:26:46;;;;;;;;;29.75;24.75;;;;;20.80;58.33;101779.53;4934483;28;48103;-77
2021/06/25 07:29:13;;;;;;;;;32.25;25.25;;;;;21.10;55.76;101782.75;4932191;28;52461;-77
2021/06/25 07:31:39;;;;;;;;;31.25;28.25;;;;;21.27;56.34;101778.00;4933696;28;45631;-79
2021/06/25 07:34:04;;;;;;;;;28.25;26.75;;;;;21.54;56.03;101768.03;4933965;28;45375;-76
2021/06/25 07:36:30;;;;;;;;;29.25;24.75;;;;;21.81;55.19;101775.84;4951657;28;47088;-77
2021/06/25 07:38:55;;;;;;;;;25.50;23.25;;;;;22.14;54.55;101777.03;4934323;28;45463;-76
2021/06/25 07:41:20;;;;;;;;;28.00;22.50;;;;;22.52;52.67;101767.91;4933069;28;45552;-76
2021/06/25 07:43:46;;;;;;;;;21.75;20.00;;;;;22.84;51.30;101763.56;4932123;28;45417;-78
2021/06/25 07:46:11;;;;;;;;;26.00;21.00;;;;;22.89;51.21;101760.56;4936090;28;46240;-76
2021/06/25 07:48:36;;;;;;;;;28.25;25.00;;;;;23.16;51.26;101761.03;4934756;28;46027;-76
2021/06/25 07:51:02;;;;;;;;;26.50;20.25;;;;;23.55;51.21;101756.13;4934518;28;45560;-77
2021/06/25 07:53:27;;;;;;;;;21.50;19.50;;;;;24.05;50.27;101752.94;4934706;28;45445;-77
2021/06/25 07:55:53;;;;;;;;;20.75;19.50;;;;;24.47;48.41;101753.84;4933800;28;48186;-77
2021/06/25 07:58:19;;;;;;;;;22.75;21.00;;;;;24.75;48.70;101751.50;4936429;28;45313;-77
2021/06/25 08:00:45;;;;;;;;;21.50;18.00;;;;;25.05;48.89;101754.16;4937415;28;45420;-77
2021/06/25 08:03:11;;;;;;;;;21.00;17.75;;;;;25.56;47.06;101750.53;4942728;28;45388;-77
2021/06/25 08:05:36;;;;;;;;;19.50;17.75;;;;;26.06;46.16;101741.56;4935059;28;45824;-77
2021/06/25 08:08:02;;;;;;;;;18.75;18.50;;;;;26.53;46.04;101740.66;4933626;28;45552;-75
2021/06/25 08:10:27;;;;;;;;;22.25;18.25;;;;;26.90;45.08;101739.84;4934637;28;45263;-76
2021/06/25 08:12:53;;;;;;;;;18.75;17.75;;;;;27.05;45.03;101743.75;4933965;28;45455;-77
2021/06/25 08:15:18;;;;;;;;;20.75;17.50;;;;;27.22;42.41;101739.44;4932045;28;52357;-76
2021/06/25 08:17:43;;;;;;;;;22.75;21.75;;;;;27.62;43.22;101738.22;4935476;28;45419;-76
2021/06/25 08:20:10;;;;;;;;;23.75;18.75;;;;;28.82;42.46;101737.69;4934468;28;45461;-76
2021/06/25 08:22:36;;;;;;;;;19.25;17.75;;;;;29.73;40.93;101737.06;4935232;28;45437;-76
2021/06/25 08:25:01;;;;;;;;;22.75;20.25;;;;;29.90;40.06;101733.34;4935109;28;45816;-76
2021/06/25 08:27:27;;;;;;;;;20.25;18.75;;;;;30.37;40.08;101738.94;4942981;28;45480;-77
2021/06/25 08:29:54;;;;;;;;;17.25;15.75;;;;;31.27;39.70;101736.03;4936415;28;45788;-77
2021/06/25 08:32:20;;;;;;;;;19.25;18.00;;;;;32.83;37.87;101739.19;4937390;28;45384;-76
2021/06/25 08:34:45;;;;;;;;;15.25;13.25;;;;;34.76;35.77;101733.88;4936918;28;45739;-77
2021/06/25 08:37:12;;;;;;;;;18.75;16.00;;;;;37.97;36.04;101740.72;4937160;28;45618;-78
2021/06/25 08:39:38;;;;;;;;;21.75;15.75;;;;;40.68;30.77;101730.78;4938896;28;45451;-77
2021/06/25 08:42:04;;;;;;;;;18.50;17.50;;;;;42.62;28.25;101731.56;4941059;28;45474;-78
2021/06/25 08:44:35;;;;;;;;;19.00;15.50;;;;;43.71;26.88;101736.16;4936072;28;45968;-78
2021/06/25 08:47:00;;;;;;;;;20.25;17.25;;;;;43.88;26.87;101734.09;4935785;28;45806;-77
2021/06/25 08:49:27;;;;;;;;;19.25;16.00;;;;;42.69;25.16;101738.56;4938329;28;45450;-77
2021/06/25 08:51:53;;;;;;;;;17.25;17.25;;;;;41.05;25.75;101731.31;4938032;28;45469;-78
2021/06/25 08:54:18;;;;;;;;;18.75;15.50;;;;;39.51;26.16;101730.56;4936804;28;45736;-77
2021/06/25 08:56:44;;;;;;;;;19.75;18.00;;;;;38.09;26.04;101734.25;4937198;28;45288;-79
2021/06/25 08:59:09;;;;;;;;;16.50;16.50;;;;;38.01;27.29;101731.81;4936700;28;45618;-77
2021/06/25 09:01:36;;;;;;;;;22.25;17.75;;;;;37.27;26.83;101718.72;4937418;28;45514;-77
2021/06/25 09:04:04;;;;;;;;;25.00;19.75;;;;;35.40;26.91;101725.38;4936936;28;47717;-77
2021/06/25 09:06:29;;;;;;;;;16.50;15.00;;;;;33.49;29.33;101723.75;4935627;28;45587;-76
2021/06/25 09:09:12;;;;;;;;;20.75;18.75;;;;;32.03;29.90;101720.75;4948245;28;45468;-75
2021/06/25 09:11:40;;;;;;;;;18.00;17.50;;;;;30.94;31.60;101713.56;4936139;28;45548;-74
2021/06/25 09:14:06;;;;;;;;;19.75;18.25;;;;;30.15;33.21;101713.38;4934333;28;45742;-76
2021/06/25 09:16:34;;;;;;;;;26.75;24.00;;;;;29.66;33.88;101714.38;4937558;28;45754;-77
2021/06/25 09:19:13;;;;;;;;;22.75;19.75;;;;;29.14;34.44;101712.69;4936764;28;45431;-77
2021/06/25 09:21:42;;;;;;;;;20.25;18.00;;;;;28.94;34.71;101708.53;4936251;28;45555;-77
2021/06/25 09:24:25;;;;;;;;;18.50;14.00;;;;;29.04;35.38;101704.69;4934013;28;46366;-78
2021/06/25 09:26:57;;;;;;;;;19.75;17.75;;;;;29.37;35.12;101702.91;4935822;28;45606;-77
2021/06/25 09:29:24;;;;;;;;;22.50;19.25;;;;;29.36;34.71;101703.09;4936518;28;45651;-77
2021/06/25 09:32:01;;;;;;;;;20.50;17.75;;;;;29.15;34.24;101700.81;4934730;28;45560;-77
2021/06/25 09:34:35;;;;;;;;;20.50;20.25;;;;;28.99;34.65;101707.03;4934407;28;46393;-77
2021/06/25 09:37:02;;;;;;;;;19.00;17.50;;;;;28.90;35.27;101697.13;4929988;28;45834;-75
2021/06/25 09:39:27;;;;;;;;;20.00;17.50;;;;;29.04;35.88;101693.84;4931236;28;45648;-77
2021/06/25 09:41:53;;;;;;;;;16.50;16.00;;;;;29.20;35.37;101697.63;4934173;28;45516;-76
2021/06/25 09:44:19;;;;;;;;;24.25;20.25;;;;;29.08;35.20;101697.09;4933516;28;46133;-75
2021/06/25 09:46:51;;;;;;;;;18.25;18.00;;;;;28.83;35.08;101698.81;4931909;28;45526;-77
2021/06/25 09:49:24;;;;;;;;;23.25;18.50;;;;;28.60;35.91;101693.94;4936809;28;45575;-77
2021/06/25 09:51:55;;;;;;;;;22.75;17.25;;;;;28.40;35.15;101697.03;4936305;28;45633;-78
2021/06/25 09:54:21;;;;;;;;;17.50;15.50;;;;;28.11;36.04;101687.34;4936445;28;45446;-77
2021/06/25 10:02:19;;;;;;;;;20.50;18.00;;;;;28.85;36.49;101678.69;4934405;28;45469;-78
2021/06/25 10:04:46;;;;;;;;;13.75;13.75;;;;;29.04;36.69;101676.78;4935013;28;45420;-77
2021/06/25 10:07:13;;;;;;;;;18.25;16.50;;;;;29.30;35.72;101671.25;4936573;28;45447;-75
2021/06/25 10:09:40;;;;;;;;;21.50;18.75;;;;;29.56;36.05;101676.59;4933835;28;45491;-76
2021/06/25 10:12:08;;;;;;;;;16.50;14.75;;;;;29.85;35.02;101673.38;4933605;28;45511;-77
2021/06/25 10:14:34;;;;;;;;;15.25;15.25;;;;;30.19;36.23;101673.22;4934584;28;46260;-76
2021/06/25 10:17:00;;;;;;;;;16.75;14.75;;;;;30.70;35.00;101670.22;4934312;28;45448;-76
2021/06/25 10:19:26;;;;;;;;;16.25;15.00;;;;;31.17;34.04;101672.94;4938260;28;45372;-77
2021/06/25 10:21:54;;;;;;;;;19.50;15.25;;;;;31.57;34.73;101663.66;4944605;28;45316;-77
2021/06/25 10:24:20;;;;;;;;;17.50;13.75;;;;;31.84;33.08;101669.59;4936504;28;45479;-77
2021/06/25 10:26:46;;;;;;;;;16.00;16.00;;;;;31.72;33.19;101665.59;4935582;28;45482;-77
2021/06/25 10:29:12;;;;;;;;;22.00;16.00;;;;;31.52;33.36;101660.66;4936592;28;45293;-77
2021/06/25 10:31:38;;;;;;;;;12.75;12.50;;;;;31.53;34.30;101658.78;4934787;28;45778;-77
2021/06/25 10:34:03;;;;;;;;;13.00;11.75;;;;;31.68;33.28;101656.97;4935936;28;46992;-77
2021/06/25 10:36:32;;;;;;;;;16.00;14.00;;;;;31.64;33.08;101656.50;4938646;28;45504;-77
2021/06/25 10:39:13;;;;;;;;;16.50;14.50;;;;;31.73;33.65;101656.41;4937400;28;45716;-77
2021/06/25 10:41:56;;;;;;;;;15.25;14.75;;;;;32.01;33.62;101663.00;4935412;28;45799;-76
2021/06/25 10:44:45;;;;;;;;;16.25;13.00;;;;;32.21;32.93;101649.69;4927498;28;46148;-76
2021/06/25 10:47:18;;;;;;;;;12.50;9.75;;;;;32.25;33.68;101647.47;4923480;28;45798;-77
2021/06/25 10:49:58;;;;;;;;;12.75;11.25;;;;;32.21;33.01;101646.97;4936072;28;45431;-77
2021/06/25 10:52:25;;;;;;;;;8.50;8.50;;;;;32.33;33.33;101648.22;4933351;28;46144;-77
2021/06/25 10:55:04;;;;;;;;;10.75;10.75;;;;;32.39;32.83;101647.50;4934081;28;46416;-77
2021/06/25 10:57:31;;;;;;;;;12.50;11.50;;;;;32.32;33.47;101643.84;4932894;28;45522;-77
2021/06/25 10:59:57;;;;;;;;;12.00;10.00;;;;;32.22;33.20;101645.97;4937053;28;45571;-77
2021/06/25 11:02:45;;;;;;;;;17.75;16.75;;;;;31.98;32.59;101646.22;4936086;28;45695;-77
2021/06/25 11:05:25;;;;;;;;;14.25;14.00;;;;;31.46;33.78;101644.25;4927036;28;47510;-75
2021/06/25 11:08:00;;;;;;;;;14.00;12.00;;;;;31.12;33.23;101646.31;4948778;28;45739;-75
2021/06/25 11:10:33;;;;;;;;;14.75;14.00;;;;;30.60;34.05;101640.59;4937659;28;45291;-77
2021/06/25 11:13:15;;;;;;;;;13.75;11.25;;;;;30.33;35.17;101645.41;4952080;28;45724;-77
2021/06/25 11:15:43;;;;;;;;;12.00;12.00;;;;;30.06;34.51;101643.03;4936317;28;46193;-75
2021/06/25 11:18:18;;;;;;;;;13.00;12.25;;;;;29.80;34.75;101651.34;4929955;28;45822;-75
2021/06/25 11:20:50;;;;;;;;;18.50;14.50;;;;;29.58;35.86;101642.03;4935437;28;48654;-75
2021/06/25 11:23:26;;;;;;;;;14.75;11.25;;;;;29.46;35.36;101646.06;4936252;28;45777;-75
2021/06/25 11:25:56;;;;;;;;;17.50;14.00;;;;;29.32;35.51;101639.44;4933729;28;46725;-76